Latest Weather Observations for McCluer Island

IDD60801

Issued at 11:31 am CST Wednesday 2 September 2015 (issued every 30 minutes, with the page automatically refreshed every 10 minutes)

About weather observations | Map of weather stations | Latest weather observations for NT | Other Formats
Station Details ID: 014274 Name: MCCLUER ISLAND Lat: -11.05 Lon: 132.98 Height: 1.4 m
Data from the previous 72 hours. | See also: Recent months at McCluer Island
Date/Time
CST
Temp
°C
App
Temp
°C
Dew
Point
Rel
Hum
%
Delta-T
°C
Wind Press
QNH
hPa
Press
MSL
hPa
Rain
since 9 am
mm
Dir
 
Spd
km/h
Gust
km/h
Spd
kts
Gust
kts
02/11:30am 27.9 31.1 21.2 67 4.4 NE 6 7 3 4 1016.2 - 0.0
02/11:00am 27.7 30.4 21.3 68 4.3 ENE 9 11 5 6 1016.4 - 0.0
02/10:30am 28.2 31.6 22.0 69 4.2 E 7 9 4 5 1016.7 - 0.0
02/10:00am 28.6 31.5 21.1 64 5.0 SW 7 9 4 5 1016.7 - 0.0
02/09:30am 27.6 29.8 20.4 65 4.7 SW 9 11 5 6 1016.6 - 0.0
02/09:00am 27.3 29.7 20.1 64 4.7 SW 7 9 4 5 1016.3 1016.3 0.0
02/08:30am 26.7 28.9 20.5 69 4.1 SW 9 11 5 6 1016.0 - 0.0
02/08:00am 26.2 28.2 20.7 71 3.6 SW 11 15 6 8 1015.5 - 0.0
02/07:30am 25.6 27.6 21.5 78 2.7 SW 13 17 7 9 1015.2 - 0.0
02/07:00am 25.1 27.1 21.6 81 2.3 SW 13 15 7 8 1015.0 - 0.0
02/06:30am 25.0 27.0 21.5 81 2.3 SW 13 17 7 9 1014.5 - 0.0
02/06:00am 25.0 27.2 21.1 79 2.6 WSW 11 15 6 8 1014.2 1014.2 0.0
02/05:30am 24.7 27.7 21.2 81 2.3 SW 7 11 4 6 1013.9 - 0.0
02/05:00am 24.7 27.1 20.8 79 2.6 SW 9 11 5 6 1013.7 - 0.0
02/04:30am 24.9 27.8 21.0 79 2.6 WSW 7 9 4 5 1013.8 - 0.0
02/04:00am 24.9 27.7 20.8 78 2.7 W 7 9 4 5 1013.8 - 0.0
02/03:30am 25.0 27.8 20.9 78 2.7 W 7 9 4 5 1013.8 - 0.0
02/03:00am 25.1 27.7 21.2 79 2.6 W 9 11 5 6 1013.9 1013.9 0.0
02/02:30am 25.0 27.2 21.1 79 2.6 NW 11 13 6 7 1013.9 - 0.0
02/02:00am 24.9 27.5 21.2 80 2.4 NNW 9 13 5 7 1013.8 - 0.0
02/01:30am 25.3 27.5 21.2 78 2.7 N 11 13 6 7 1013.7 - 0.0
02/01:00am 25.4 27.1 20.9 76 3.0 N 13 15 7 8 1013.8 - 0.0
02/12:30am 25.8 26.9 21.2 76 3.0 N 17 19 9 10 1013.9 - 0.0
02/12:00am 26.0 27.0 21.0 74 3.3 NNE 17 20 9 11 1014.1 1014.1 0.0
 
Date/Time
CST
Temp
°C
App
Temp
°C
Dew
Point
Rel
Hum
%
Delta-T
°C
Wind Press
QNH
hPa
Press
MSL
hPa
Rain
since 9 am
mm
Dir
 
Spd
km/h
Gust
km/h
Spd
kts
Gust
kts
01/11:30pm 26.3 27.3 21.1 73 3.4 N 17 19 9 10 1014.2 - 0.0
01/11:00pm 26.2 27.0 20.7 71 3.6 N 17 19 9 10 1014.0 - 0.0
01/10:30pm 26.3 27.9 21.5 75 3.2 N 15 17 8 9 1013.8 - 0.0
01/10:00pm 26.1 27.9 21.1 74 3.3 N 13 15 7 8 1013.8 - 0.0
01/09:30pm 26.0 28.2 21.9 78 2.7 NNW 13 15 7 8 1013.8 - 0.0
01/09:00pm 25.9 28.1 21.8 78 2.7 N 13 15 7 8 1013.6 1013.6 0.0
01/08:30pm 25.7 27.6 21.4 77 2.8 N 13 15 7 8 1013.2 - 0.0
01/08:00pm 25.8 28.3 21.7 78 2.7 N 11 13 6 7 1012.9 - 0.0
01/07:30pm 25.8 28.4 21.2 76 3.0 N 9 13 5 7 1012.4 - 0.0
01/07:00pm 26.0 28.6 21.9 78 2.7 N 11 13 6 7 1011.9 - 0.0
01/06:30pm 25.9 28.3 21.6 77 2.9 N 11 15 6 8 1011.9 - 0.0
01/06:00pm 26.5 28.8 22.1 77 3.0 N 13 17 7 9 1011.8 1011.8 0.0
01/05:30pm 26.7 28.5 21.2 72 3.6 N 13 15 7 8 1011.7 - 0.0
01/05:00pm 27.2 29.8 21.2 69 4.0 N 9 11 5 6 1011.7 - 0.0
01/04:30pm 27.1 29.3 20.4 66 4.4 N 9 11 5 6 1011.7 - 0.0
01/04:00pm 28.2 30.9 20.7 63 5.0 NW 7 9 4 5 1011.8 - 0.0
01/03:30pm 28.7 31.5 21.5 65 4.8 WNW 9 11 5 6 1011.8 - 0.0
01/03:00pm 28.5 31.5 22.0 68 4.4 WNW 9 11 5 6 1012.0 1012.0 0.0
01/02:30pm 28.4 31.5 22.2 69 4.2 W 9 11 5 6 1012.2 - 0.0
01/02:00pm 28.1 31.2 22.1 70 4.0 WNW 9 11 5 6 1012.5 - 0.0
01/01:30pm 27.9 30.9 21.9 70 4.0 W 9 11 5 6 1013.1 - 0.0
01/01:00pm 27.8 30.9 22.1 71 3.8 WSW 9 11 5 6 1013.6 - 0.0
01/12:30pm 27.9 30.9 21.9 70 4.0 SW 9 13 5 7 1014.0 - 0.0
01/12:00pm 28.0 30.6 22.0 70 4.0 SW 11 15 6 8 1014.5 1014.5 0.0
01/11:30am 27.2 29.4 21.9 73 3.6 ESE 13 15 7 8 1014.7 - 0.0
01/11:00am 26.9 29.6 22.1 75 3.2 SE 11 15 6 8 1015.1 - 0.0
01/10:30am 27.5 30.6 22.9 76 3.1 ESE 11 13 6 7 1015.3 - 0.0
01/10:00am 27.0 30.0 22.0 74 3.4 E 9 13 5 7 1015.5 - 0.0
01/09:30am 26.5 29.3 21.5 74 3.3 E 9 13 5 7 1015.4 - 0.0
01/09:00am 26.7 29.7 21.9 75 3.2 E 9 13 5 7 1015.3 1015.3 0.0
01/08:30am 26.1 28.8 21.3 75 3.2 E 9 11 5 6 1015.1 - 0.0
01/08:00am 25.5 30.2 22.0 81 2.3 CALM 0 6 0 3 1014.8 - 0.0
01/07:30am 24.4 29.2 22.1 87 1.5 CALM 0 6 0 3 1014.4 - 0.0
01/07:00am 23.5 28.1 21.8 90 1.1 CALM 0 0 0 0 1014.2 - 0.0
01/06:30am 23.1 27.5 21.4 90 1.1 CALM 0 2 0 1 1013.8 - 0.0
01/06:00am 22.7 26.7 20.6 88 1.4 CALM 0 0 0 0 1013.7 1013.7 0.0
01/05:30am 23.7 28.3 21.8 89 1.3 CALM 0 0 0 0 1013.4 - 0.0
01/05:00am 23.9 28.3 21.4 86 1.6 CALM 0 0 0 0 1013.3 - 0.0
01/04:30am 24.7 29.0 21.2 81 2.3 CALM 0 0 0 0 1013.4 - 0.0
01/04:00am 24.9 29.3 21.4 81 2.3 CALM 0 0 0 0 1013.4 - 0.0
01/03:30am 25.0 28.7 21.5 81 2.3 N 4 9 2 5 1013.4 - 0.0
01/03:00am 25.2 27.3 21.7 81 2.3 NNE 13 15 7 8 1013.1 - 0.0
01/02:30am 25.3 27.3 22.2 83 2.1 NE 15 19 8 10 1013.3 - 0.0
01/02:00am 25.4 27.8 22.3 83 2.1 NE 13 17 7 9 1013.4 - 0.0
01/01:30am 25.4 27.8 22.3 83 2.1 NE 13 15 7 8 1013.5 - 0.0
01/01:00am 25.5 27.6 22.4 83 2.1 NE 15 19 8 10 1013.7 - 0.0
01/12:30am 25.7 27.9 22.6 83 2.1 NE 15 19 8 10 1014.0 - 0.0
01/12:00am 25.5 28.0 22.4 83 2.1 NE 13 15 7 8 1014.1 1014.1 0.0
 
Date/Time
CST
Temp
°C
App
Temp
°C
Dew
Point
Rel
Hum
%
Delta-T
°C
Wind Press
QNH
hPa
Press
MSL
hPa
Rain
since 9 am
mm
Dir
 
Spd
km/h
Gust
km/h
Spd
kts
Gust
kts
31/11:30pm 25.6 28.8 22.3 82 2.2 NE 9 13 5 7 1014.1 - 0.0
31/11:00pm 25.7 28.4 22.2 81 2.3 NE 11 13 6 7 1014.1 - 0.0
31/10:30pm 25.7 28.8 22.2 81 2.3 NE 9 11 5 6 1014.0 - 0.0
31/10:00pm 25.8 28.6 22.3 81 2.3 NNE 11 13 6 7 1013.7 - 0.0
31/09:30pm 26.0 29.0 22.7 82 2.2 NNE 11 13 6 7 1013.7 - 0.0
31/09:00pm 25.9 28.8 22.4 81 2.4 N 11 13 6 7 1013.6 1013.6 0.0
31/08:30pm 25.9 28.8 22.4 81 2.4 N 11 13 6 7 1013.3 - 0.0
31/08:00pm 26.0 28.6 22.7 82 2.2 N 13 15 7 8 1012.9 - 0.0
31/07:30pm 25.8 27.4 22.1 80 2.5 NNE 17 20 9 11 1012.4 - 0.0
31/07:00pm 25.7 26.5 22.4 82 2.2 NNE 22 24 12 13 1012.2 - 0.0
31/06:30pm 25.8 26.6 22.5 82 2.2 NE 22 24 12 13 1012.1 - 0.0
31/06:00pm 26.2 27.4 22.5 80 2.5 NE 20 24 11 13 1012.1 1012.1 0.0
31/05:30pm 26.5 27.6 21.3 73 3.4 ENE 17 20 9 11 1012.0 - 0.0
31/05:00pm 27.0 28.0 20.3 66 4.4 E 15 19 8 10 1011.9 - 0.0
31/04:30pm 27.4 29.2 21.2 69 4.1 E 13 15 7 8 1011.9 - 0.0
31/04:00pm 27.5 29.0 21.3 69 4.1 E 15 17 8 9 1012.0 - 0.0
31/03:30pm 28.0 29.5 22.0 70 4.0 E 17 20 9 11 1012.3 - 0.0
31/03:00pm 28.0 28.9 21.5 67 4.3 E 19 22 10 12 1012.5 1012.5 0.0
31/02:30pm 29.0 29.9 21.5 64 5.0 ESE 19 24 10 13 1012.8 - 0.0
31/02:00pm 28.4 28.3 19.6 59 5.7 ESE 19 28 10 15 1013.2 - 0.0
31/01:30pm 28.5 29.9 21.8 67 4.5 E 17 20 9 11 1013.5 - 0.0
31/01:00pm 27.9 30.1 22.6 73 3.6 E 15 17 8 9 1014.0 - 0.0
31/12:30pm 28.2 30.1 22.7 72 3.7 E 17 20 9 11 1014.2 - 0.0
31/12:00pm 27.6 30.0 22.3 73 3.6 E 13 15 7 8 1014.7 1014.7 0.0
31/11:30am 27.9 30.6 22.1 70 3.9 E 11 15 6 8 1015.2 - 0.0
31/11:00am 27.8 30.3 23.2 76 3.1 E 15 19 8 10 1015.4 - 0.0
31/10:30am 27.7 30.1 22.9 75 3.3 E 15 17 8 9 1015.7 - 0.0
31/10:00am 27.4 30.0 21.9 72 3.7 E 11 15 6 8 1015.7 - 0.0
31/09:30am 27.3 30.2 22.5 75 3.2 E 11 15 6 8 1015.6 - 0.0
31/09:00am 27.1 29.9 22.3 75 3.2 E 11 13 6 7 1015.6 1015.6 0.0
31/08:30am 26.4 29.4 22.0 77 2.9 E 9 13 5 7 1015.5 - 0.0
31/08:00am 26.1 29.0 22.4 80 2.5 ESE 11 15 6 8 1015.2 - 0.0
31/07:30am 25.3 28.3 22.0 82 2.2 ESE 9 13 5 7 1014.8 - 0.0
31/07:00am 25.2 27.6 22.3 84 1.9 E 13 15 7 8 1014.6 - 0.0
31/06:30am 25.2 27.6 22.3 84 1.9 E 13 15 7 8 1014.4 - 0.0
31/06:00am 25.2 27.2 22.3 84 1.9 E 15 17 8 9 1014.0 1014.0 0.0
31/05:30am 25.3 27.0 22.4 84 1.9 E 17 19 9 10 1013.6 - 0.0
31/05:00am 25.4 27.3 22.7 85 1.8 E 17 19 9 10 1013.4 - 0.0
31/04:30am 25.3 26.6 22.4 84 1.9 E 19 22 10 12 1013.5 - 0.0
31/04:00am 25.4 26.7 22.7 85 1.8 ENE 20 24 11 13 1013.7 - 0.0
31/03:30am 25.5 26.5 22.8 85 1.8 E 22 26 12 14 1013.8 - 0.0
31/03:00am 25.5 26.5 22.8 85 1.8 ENE 22 24 12 13 1014.0 1014.0 0.0
31/02:30am 25.3 26.1 22.4 84 1.9 E 22 26 12 14 1014.3 - 0.0
31/02:00am 25.3 26.2 22.6 85 1.8 E 22 24 12 13 1014.6 - 0.0
31/01:30am 25.3 26.1 22.4 84 1.9 E 22 26 12 14 1014.7 - 0.0
31/01:00am 25.4 25.9 22.7 85 1.8 ENE 24 26 13 14 1014.7 - 0.0
31/12:30am 25.4 25.8 22.5 84 1.9 ENE 24 30 13 16 1014.7 - 0.0
31/12:00am 25.6 26.3 22.9 85 1.8 ENE 24 26 13 14 1014.9 1014.9 0.0
 
Date/Time
CST
Temp
°C
App
Temp
°C
Dew
Point
Rel
Hum
%
Delta-T
°C
Wind Press
QNH
hPa
Press
MSL
hPa
Rain
since 9 am
mm
Dir
 
Spd
km/h
Gust
km/h
Spd
kts
Gust
kts
30/11:30pm 25.7 26.3 22.8 84 2.0 ENE 24 28 13 15 1014.7 - 0.0
30/11:00pm 25.8 27.3 23.1 85 1.8 ENE 20 26 11 14 1014.6 - 0.0
30/10:30pm 25.9 27.1 23.2 85 1.8 NE 22 26 12 14 1014.6 - 0.0
30/10:00pm 25.8 26.3 22.7 83 2.1 ENE 24 28 13 15 1014.4 - 0.0
30/09:30pm 26.1 26.7 23.4 85 1.8 NE 26 30 14 16 1014.1 - 0.0
30/09:00pm 26.2 26.1 23.5 85 1.8 NE 30 33 16 18 1013.8 1013.8 0.0
30/08:30pm 25.9 25.7 22.8 83 2.1 NE 28 33 15 18 1013.6 - 0.0
30/08:00pm 26.0 25.5 22.9 83 2.1 NE 30 33 16 18 1013.3 - 0.0
30/07:30pm 25.9 25.6 22.6 82 2.2 NE 28 32 15 17 1013.0 - 0.0
30/07:00pm 25.9 26.0 22.6 82 2.2 NE 26 30 14 16 1012.9 - 0.0
30/06:30pm 25.8 26.0 22.7 83 2.1 ENE 26 30 14 16 1012.6 - 0.0
30/06:00pm 25.9 26.3 22.4 81 2.4 NE 24 28 13 15 1012.6 1012.6 0.0
30/05:30pm 26.1 26.9 22.4 80 2.5 ENE 22 26 12 14 1012.8 - 0.0
30/05:00pm 26.2 26.8 22.1 78 2.7 E 22 28 12 15 1012.9 - 0.0
30/04:30pm 26.6 28.1 23.1 81 2.4 E 20 24 11 13 1012.9 - 0.0
30/04:00pm 26.8 28.2 22.8 79 2.7 E 20 24 11 13 1012.9 - 0.0
30/03:30pm 26.9 28.3 22.9 79 2.7 E 20 24 11 13 1012.9 - 0.0
30/03:00pm 26.9 27.8 22.7 78 2.8 E 22 24 12 13 1013.2 1013.2 0.0
30/02:30pm 27.5 28.3 23.1 77 3.0 E 24 28 13 15 1013.4 - 0.0
30/02:00pm 27.3 27.8 22.7 76 3.1 ESE 24 28 13 15 1013.8 - 0.0
30/01:30pm 27.2 27.5 22.2 74 3.4 ESE 24 30 13 16 1014.2 - 0.0
30/01:00pm 27.1 27.4 22.3 75 3.2 ESE 24 30 13 16 1014.6 - 0.0
30/12:30pm 27.3 27.7 22.5 75 3.2 ESE 24 30 13 16 1015.0 - 0.0
30/12:00pm 27.1 27.3 22.1 74 3.4 E 24 30 13 16 1015.3 1015.3 0.0

Other Formats:

Comma delimited format used in spreadsheet applications
http://www.bom.gov.au/fwo/IDD60801/IDD60801.94135.axf

JavaScript Object Notation format (JSON) in row-major order
http://www.bom.gov.au/fwo/IDD60801/IDD60801.94135.json